Time;durP1;ratioP1;P1;durP2;ratioP2;P2;SDS_P1;SDS_P2;PMS_P1;PMS_P2;Temp;Humidity;BMP_temperature;BMP_pressure;BME280_temperature;BME280_humidity;BME280_pressure;Samples;Min_cycle;Max_cycle;Signal;HPM_P1;HPM_P2
2022/12/15 00:40:58;;;;;;;12.73;5.50;;;-2.20;99.90;;;;;;4962452;28;20067;-67
2022/12/15 00:43:32;;;;;;;8.13;4.63;;;-2.20;99.90;;;;;;4955143;28;20082;-67
2022/12/15 00:48:43;;;;;;;10.60;6.07;;;-2.20;99.90;;;;;;4956913;28;20043;-67
2022/12/15 00:51:10;;;;;;;9.32;5.15;;;-2.10;99.90;;;;;;4964304;28;20502;-67
2022/12/15 01:21:04;;;;;;;12.65;7.80;;;-2.10;99.90;;;;;;4932783;29;20035;-67
2022/12/15 01:23:31;;;;;;;5.57;4.15;;;-2.20;99.90;;;;;;4917940;29;20027;-67
2022/12/15 01:25:57;;;;;;;7.13;4.90;;;-2.20;99.90;;;;;;4917445;29;20039;-67
2022/12/15 01:28:23;;;;;;;10.98;6.72;;;-2.20;99.90;;;;;;4934663;29;20032;-67
2022/12/15 01:30:55;;;;;;;9.48;4.53;;;-2.20;99.90;;;;;;4917023;29;20674;-67
2022/12/15 01:33:22;;;;;;;9.48;6.25;;;-2.20;99.90;;;;;;4934571;29;20387;-67
2022/12/15 01:35:58;;;;;;;7.18;4.78;;;-2.20;99.90;;;;;;4917025;29;20032;-67
2022/12/15 01:38:25;;;;;;;13.25;5.00;;;-2.20;99.90;;;;;;4917471;29;20047;-67
2022/12/15 01:41:03;;;;;;;7.65;4.35;;;-2.20;99.90;;;;;;4917000;29;20470;-67
2022/12/15 01:43:33;;;;;;;8.88;4.63;;;-2.20;99.90;;;;;;4918526;29;20039;-67
2022/12/15 01:46:16;;;;;;;6.60;4.38;;;-2.30;99.90;;;;;;4917259;29;20051;-67
2022/12/15 01:48:51;;;;;;;12.18;5.60;;;-2.30;99.90;;;;;;4917836;29;20488;-67
2022/12/15 01:51:30;;;;;;;8.60;5.20;;;-2.30;99.90;;;;;;4932999;29;20042;-67
2022/12/15 01:54:32;;;;;;;16.92;6.28;;;-2.30;99.90;;;;;;4934589;29;20049;-67
2022/12/15 01:57:07;;;;;;;;;;;-2.30;99.90;;;;;;4933872;29;20038;-67
2022/12/15 01:59:42;;;;;;;8.38;5.00;;;-2.30;99.90;;;;;;4917747;29;19915;-67
2022/12/15 02:02:09;;;;;;;12.05;6.95;;;-2.20;99.90;;;;;;4916724;29;20035;-67
2022/12/15 02:04:36;;;;;;;12.15;5.72;;;-2.20;99.90;;;;;;4900450;29;20746;-67
2022/12/15 02:07:03;;;;;;;10.18;6.65;;;-2.20;99.90;;;;;;4912069;29;20036;-67
2022/12/15 02:09:29;;;;;;;11.18;6.90;;;-2.20;99.90;;;;;;4930180;29;20027;-67
2022/12/15 02:12:26;;;;;;;16.67;5.80;;;-2.20;99.90;;;;;;4921489;29;20066;-67
2022/12/15 02:15:22;;;;;;;14.73;6.47;;;-2.10;99.90;;;;;;4917763;29;20395;-67
2022/12/15 02:18:29;;;;;;;12.57;6.95;;;-2.10;99.90;;;;;;4933156;29;20491;-67
2022/12/15 02:21:28;;;;;;;8.95;6.00;;;-2.10;99.90;;;;;;4932528;29;20039;-67
2022/12/15 02:23:59;;;;;;;9.50;5.25;;;-2.10;99.90;;;;;;4913680;29;20649;-67
2022/12/15 02:27:02;;;;;;;10.38;4.75;;;-2.10;99.90;;;;;;4923205;29;20043;-67
2022/12/15 02:30:07;;;;;;;16.83;5.97;;;-2.10;99.90;;;;;;4919217;29;20032;-66
2022/12/15 02:33:11;;;;;;;14.50;7.68;;;-2.10;99.90;;;;;;4918296;29;20028;-67
2022/12/15 02:36:02;;;;;;;15.38;7.28;;;-2.00;99.90;;;;;;4932757;29;20167;-67
2022/12/15 02:38:43;;;;;;;9.77;5.28;;;-2.00;99.90;;;;;;4917133;29;20111;-67
2022/12/15 02:41:36;;;;;;;14.93;7.05;;;-2.00;99.90;;;;;;4916389;29;20032;-67
2022/12/15 02:44:18;;;;;;;13.30;6.90;;;-2.00;99.90;;;;;;4933431;29;20047;-67
2022/12/15 02:47:29;;;;;;;12.38;7.15;;;-2.00;99.90;;;;;;4916483;29;20046;-67
2022/12/15 02:50:35;;;;;;;12.98;5.03;;;-2.10;99.90;;;;;;4932847;29;20036;-67
2022/12/15 02:53:30;;;;;;;8.95;6.78;;;-2.10;99.90;;;;;;4926802;29;20063;-67
2022/12/15 02:56:32;;;;;;;13.25;7.75;;;-2.10;99.90;;;;;;4916731;29;20055;-67
2022/12/15 02:59:24;;;;;;;10.75;4.57;;;-2.10;99.90;;;;;;4933136;29;20028;-67
2022/12/15 03:02:04;;;;;;;5.63;4.13;;;-2.20;99.90;;;;;;4916139;29;20038;-67
2022/12/15 03:04:32;;;;;;;12.57;6.10;;;-2.20;99.90;;;;;;4916516;29;20032;-67
2022/12/15 03:07:04;;;;;;;7.97;5.18;;;-2.20;99.90;;;;;;4900175;29;20377;-66
2022/12/15 03:09:30;;;;;;;;;;;-2.20;99.90;;;;;;4916833;29;20114;-66
2022/12/15 03:11:56;;;;;;;13.68;5.35;;;-2.20;99.90;;;;;;4915239;29;19915;-66
2022/12/15 03:14:26;;;;;;;20.58;7.50;;;-2.20;99.90;;;;;;4900414;29;20031;-66
2022/12/15 03:16:53;;;;;;;7.28;5.78;;;-2.20;99.90;;;;;;4932074;29;20027;-66
2022/12/15 03:19:19;;;;;;;17.52;7.47;;;-2.20;99.90;;;;;;4916081;29;20476;-67
2022/12/15 03:21:45;;;;;;;15.77;9.38;;;-2.30;99.90;;;;;;4931833;29;20488;-66
2022/12/15 03:24:11;;;;;;;16.45;6.70;;;-2.30;99.90;;;;;;4933071;29;20033;-66
2022/12/15 03:26:36;;;;;;;9.45;6.22;;;-2.30;99.90;;;;;;4915346;29;20507;-66
2022/12/15 03:29:02;;;;;;;14.43;5.63;;;-2.30;99.90;;;;;;4916143;29;20036;-66
2022/12/15 03:31:28;;;;;;;11.50;5.65;;;-2.40;99.90;;;;;;4915131;29;20454;-66
2022/12/15 03:33:57;;;;;;;9.38;5.55;;;-2.30;99.90;;;;;;4932782;29;20065;-66
2022/12/15 03:36:22;;;;;;;18.80;4.95;;;-2.40;99.90;;;;;;4931936;29;20032;-67
2022/12/15 03:38:48;;;;;;;11.25;5.85;;;-2.30;99.90;;;;;;4932947;29;20039;-66
2022/12/15 03:41:16;;;;;;;10.35;6.00;;;-2.40;99.90;;;;;;4932237;29;20065;-66
2022/12/15 03:43:42;;;;;;;12.38;6.20;;;-2.30;99.90;;;;;;4932825;29;20043;-66
2022/12/15 03:46:08;;;;;;;7.28;5.43;;;-2.40;99.90;;;;;;4932369;29;20035;-66
2022/12/15 03:48:34;;;;;;;11.13;7.22;;;-2.40;99.90;;;;;;4932700;29;20090;-66
2022/12/15 03:50:59;;;;;;;15.32;5.05;;;-2.40;99.90;;;;;;4931605;29;20123;-66
2022/12/15 03:53:25;;;;;;;13.68;4.90;;;-2.40;99.90;;;;;;4932814;29;20078;-66
2022/12/15 03:55:51;;;;;;;8.50;4.35;;;-2.50;99.90;;;;;;4931824;29;20032;-66
2022/12/15 03:58:16;;;;;;;7.53;4.45;;;-2.50;99.90;;;;;;4932683;29;20028;-66
2022/12/15 04:00:42;;;;;;;8.95;4.45;;;-2.60;99.90;;;;;;4934597;29;20050;-66
2022/12/15 04:03:10;;;;;;;6.28;4.45;;;-2.60;99.90;;;;;;4932981;29;20039;-66
2022/12/15 04:05:36;;;;;;;10.70;4.22;;;-2.60;99.90;;;;;;4946562;29;20066;-66
2022/12/15 04:08:02;;;;;;;6.03;3.50;;;-2.70;99.90;;;;;;4922350;29;20043;-66
2022/12/15 04:10:31;;;;;;;15.27;6.53;;;-2.70;99.90;;;;;;4934799;29;20028;-66
2022/12/15 04:13:04;;;;;;;7.70;4.28;;;-2.80;99.90;;;;;;4918793;29;20028;-66
2022/12/15 04:15:29;;;;;;;6.20;5.07;;;-2.90;99.90;;;;;;4935053;29;20491;-66
2022/12/15 04:17:55;;;;;;;12.95;4.53;;;-2.90;99.90;;;;;;4935875;29;20056;-66
2022/12/15 04:20:22;;;;;;;6.90;4.10;;;-2.90;99.90;;;;;;4934738;29;20036;-66
2022/12/15 04:22:49;;;;;;;4.75;3.53;;;-3.00;99.90;;;;;;4934889;29;20024;-66
2022/12/15 05:31:51;;;;;;;5.32;4.05;;;-3.00;99.90;;;;;;4933272;29;20052;-67
2022/12/15 05:34:29;;;;;;;10.23;5.38;;;-2.90;99.90;;;;;;4915546;29;20036;-66
2022/12/15 05:36:57;;;;;;;8.13;5.13;;;-2.90;99.90;;;;;;4900986;29;20047;-67
2022/12/15 05:39:24;;;;;;;11.38;4.45;;;-3.00;99.90;;;;;;4932358;29;20035;-67
2022/12/15 05:41:52;;;;;;;7.47;4.10;;;-3.00;99.90;;;;;;4915483;29;20171;-67
2022/12/15 05:44:18;;;;;;;10.02;5.47;;;-3.00;99.90;;;;;;4913776;29;20048;-66
2022/12/15 05:46:45;;;;;;;9.02;6.35;;;-3.10;99.90;;;;;;4924801;29;20031;-66
2022/12/15 05:49:14;;;;;;;12.55;4.95;;;-3.10;99.90;;;;;;4934336;29;20039;-66
2022/12/15 05:51:42;;;;;;;6.35;3.92;;;-3.20;99.90;;;;;;4915946;29;20403;-67
2022/12/15 05:54:10;;;;;;;4.70;4.10;;;-3.30;99.90;;;;;;4917346;29;20036;-67
2022/12/15 05:56:36;;;;;;;7.80;4.30;;;-3.30;99.90;;;;;;4932514;29;20873;-67
2022/12/15 05:59:03;;;;;;;11.90;5.28;;;-3.40;99.90;;;;;;4916969;29;20031;-67
2022/12/15 06:01:34;;;;;;;7.20;4.57;;;-3.40;99.90;;;;;;4928750;29;20115;-67
2022/12/15 06:04:00;;;;;;;13.70;7.30;;;-3.50;99.90;;;;;;4912613;29;20036;-69
2022/12/15 06:06:26;;;;;;;8.20;6.18;;;-3.50;99.90;;;;;;4912979;29;20036;-70
2022/12/15 06:08:51;;;;;;;12.02;4.95;;;-3.50;99.90;;;;;;4908654;29;20031;-71
2022/12/15 06:11:19;;;;;;;5.80;3.33;;;-3.50;99.90;;;;;;4915418;29;20048;-70
2022/12/15 06:13:45;;;;;;;4.57;3.92;;;-3.50;99.90;;;;;;4929442;29;20638;-70
2022/12/15 06:16:14;;;;;;;9.90;4.65;;;-3.50;99.90;;;;;;4931773;29;20031;-69
2022/12/15 06:18:45;;;;;;;6.68;4.30;;;-3.50;99.90;;;;;;4932941;29;20031;-69
2022/12/15 06:21:17;;;;;;;5.53;5.07;;;-3.60;99.90;;;;;;4921472;29;20035;-70
2022/12/15 06:23:44;;;;;;;9.57;6.55;;;-3.50;99.90;;;;;;4914913;29;20071;-70
2022/12/15 06:26:24;;;;;;;9.60;4.63;;;-3.60;99.90;;;;;;4933199;29;20028;-70
2022/12/15 06:28:51;;;;;;;8.13;5.07;;;-3.60;99.90;;;;;;4916545;29;20039;-70
2022/12/15 06:31:21;;;;;;;8.68;4.45;;;-3.60;99.90;;;;;;4930155;29;20023;-70
2022/12/15 06:33:48;;;;;;;8.90;3.72;;;-3.60;99.90;;;;;;4914492;29;20042;-70
2022/12/15 06:36:17;;;;;;;13.38;5.53;;;-3.50;99.90;;;;;;4930406;29;20135;-70
2022/12/15 06:38:43;;;;;;;11.25;6.60;;;-3.60;99.90;;;;;;4931425;29;20510;-70
2022/12/15 06:41:12;;;;;;;5.18;3.42;;;-3.70;99.90;;;;;;4915389;29;20059;-70
2022/12/15 06:43:39;;;;;;;18.40;5.18;;;-3.80;99.90;;;;;;4914772;29;20102;-70
2022/12/15 06:46:04;;;;;;;5.10;4.13;;;-3.80;99.90;;;;;;4911085;29;20495;-71
2022/12/15 06:48:30;;;;;;;15.48;5.05;;;-3.90;99.90;;;;;;4926876;29;20406;-70
2022/12/15 06:51:02;;;;;;;7.85;4.72;;;-4.00;99.90;;;;;;4932477;29;20027;-67
2022/12/15 06:53:28;;;;;;;10.00;5.18;;;-4.10;99.90;;;;;;4915084;29;20024;-68
2022/12/15 06:56:01;;;;;;;16.48;5.45;;;-4.10;99.90;;;;;;4932093;29;20027;-69
2022/12/15 06:58:27;;;;;;;8.80;4.88;;;-4.10;99.90;;;;;;4914957;29;20027;-69
2022/12/15 07:00:53;;;;;;;10.68;4.82;;;-4.20;99.90;;;;;;4932454;29;20035;-74
2022/12/15 07:03:19;;;;;;;9.02;5.13;;;-4.20;99.90;;;;;;4931544;29;20146;-69
2022/12/15 07:05:45;;;;;;;4.85;3.63;;;-4.30;99.90;;;;;;4911755;29;20080;-69
2022/12/15 07:08:15;;;;;;;8.27;3.67;;;-4.30;99.90;;;;;;4915221;29;20119;-68
2022/12/15 07:10:43;;;;;;;13.55;5.75;;;-4.40;99.90;;;;;;4928764;23;20044;-70
2022/12/15 07:13:10;;;;;;;9.32;5.65;;;-4.40;99.90;;;;;;4919996;29;20115;-70
2022/12/15 07:15:36;;;;;;;13.77;6.43;;;-4.40;99.90;;;;;;4933026;29;20041;-72
2022/12/15 07:18:02;;;;;;;5.72;3.88;;;-4.30;99.90;;;;;;4951884;29;20488;-72
2022/12/15 07:20:28;;;;;;;11.35;3.33;;;-4.30;99.90;;;;;;4947341;29;20028;-69
2022/12/15 07:22:54;;;;;;;9.65;4.15;;;-4.30;99.90;;;;;;4941277;29;20120;-69
2022/12/15 07:25:20;;;;;;;6.93;4.40;;;-4.40;99.90;;;;;;4946487;29;20114;-69
2022/12/15 07:27:46;;;;;;;5.47;3.85;;;-4.40;99.90;;;;;;4950464;28;20094;-68
2022/12/15 07:30:13;;;;;;;7.32;3.50;;;-4.50;99.90;;;;;;4951340;29;20034;-68
2022/12/15 07:32:40;;;;;;;10.48;6.03;;;-4.40;99.90;;;;;;4938479;29;20047;-69
2022/12/15 07:35:07;;;;;;;9.02;4.40;;;-4.50;99.90;;;;;;4936147;29;20465;-69
2022/12/15 07:37:33;;;;;;;16.38;5.78;;;-4.50;99.90;;;;;;4942964;29;20545;-69
2022/12/15 07:39:59;;;;;;;10.77;5.82;;;-4.60;99.90;;;;;;4947069;29;20542;-70
2022/12/15 07:42:28;;;;;;;6.05;4.32;;;-4.60;99.90;;;;;;4954424;28;20046;-71
2022/12/15 07:44:54;;;;;;;8.05;4.93;;;-4.60;99.90;;;;;;4932009;29;20435;-71
2022/12/15 07:47:20;;;;;;;17.70;7.13;;;-4.70;99.90;;;;;;4940921;29;20106;-72
2022/12/15 07:49:45;;;;;;;10.82;4.50;;;-4.80;99.90;;;;;;4955140;29;20495;-72
2022/12/15 07:52:12;;;;;;;9.43;4.53;;;-4.80;99.90;;;;;;4945699;29;20023;-71
2022/12/15 07:54:39;;;;;;;10.43;4.47;;;-4.80;99.90;;;;;;4955179;28;20128;-71
2022/12/15 07:57:08;;;;;;;5.47;4.45;;;-4.80;99.90;;;;;;4954021;28;20019;-71
2022/12/15 07:59:34;;;;;;;7.50;4.38;;;-4.90;99.90;;;;;;4954768;28;20031;-71
2022/12/15 08:02:00;;;;;;;7.70;4.13;;;-4.90;99.90;;;;;;4945203;29;20423;-71
2022/12/15 08:04:26;;;;;;;7.47;6.60;;;-4.90;99.90;;;;;;4940879;29;20027;-71
2022/12/15 08:06:53;;;;;;;11.35;4.10;;;-4.90;99.90;;;;;;4954023;29;20499;-71
2022/12/15 08:09:19;;;;;;;7.28;4.93;;;-4.90;99.90;;;;;;4954531;28;20097;-72
2022/12/15 08:11:45;;;;;;;15.95;5.63;;;-4.90;99.90;;;;;;4952821;29;20163;-71
2022/12/15 08:14:12;;;;;;;7.80;4.43;;;-4.90;99.90;;;;;;4929534;29;20027;-72
2022/12/15 08:16:38;;;;;;;14.32;4.85;;;-4.90;99.90;;;;;;4915033;29;20372;-71
2022/12/15 08:19:05;;;;;;;8.77;4.80;;;-4.90;99.90;;;;;;4954386;29;20030;-72
2022/12/15 08:21:32;;;;;;;10.98;5.60;;;-5.00;99.90;;;;;;4947086;29;20051;-72
2022/12/15 08:24:01;;;;;;;5.40;4.38;;;-5.00;99.90;;;;;;4954747;28;20042;-72
2022/12/15 08:26:28;;;;;;;8.18;5.43;;;-4.90;99.90;;;;;;4936861;29;20039;-72
2022/12/15 08:28:53;;;;;;;9.40;5.25;;;-4.80;99.90;;;;;;4945434;29;20038;-72
2022/12/15 08:31:22;;;;;;;15.68;5.57;;;-4.70;99.90;;;;;;4953772;29;20046;-72
2022/12/15 08:33:49;;;;;;;8.52;5.32;;;-4.70;99.90;;;;;;4945553;28;20035;-73
2022/12/15 08:36:17;;;;;;;4.93;4.30;;;-4.70;99.90;;;;;;4953597;29;20075;-72
2022/12/15 08:38:45;;;;;;;8.57;5.32;;;-4.70;99.90;;;;;;4954142;29;20070;-73
2022/12/15 08:41:17;;;;;;;10.38;5.15;;;-4.60;99.90;;;;;;4949842;29;20031;-72
2022/12/15 08:43:43;;;;;;;10.95;7.38;;;-4.60;99.90;;;;;;4953216;29;20035;-72
2022/12/15 08:46:09;;;;;;;10.00;5.82;;;-4.40;99.90;;;;;;4946533;28;20028;-72
2022/12/15 08:48:35;;;;;;;8.15;6.00;;;-4.40;99.90;;;;;;4944963;29;20034;-72
2022/12/15 08:51:01;;;;;;;10.90;5.70;;;-4.30;99.90;;;;;;4946821;29;20038;-72
2022/12/15 08:53:27;;;;;;;7.63;6.18;;;-4.20;99.90;;;;;;4953911;28;20039;-72
2022/12/15 08:55:53;;;;;;;5.75;4.82;;;-4.10;99.90;;;;;;4916540;29;20086;-73
2022/12/15 08:58:19;;;;;;;6.32;4.28;;;-4.10;99.90;;;;;;4953763;29;20035;-72
2022/12/15 09:00:46;;;;;;;7.55;5.40;;;-4.10;99.90;;;;;;4952897;29;20059;-72
2022/12/15 09:03:12;;;;;;;9.65;6.03;;;-4.00;99.90;;;;;;4953526;29;20078;-73
2022/12/15 09:05:38;;;;;;;7.85;5.43;;;-3.90;99.90;;;;;;4964476;28;20038;-72
2022/12/15 09:08:04;;;;;;;5.45;4.85;;;-3.80;99.90;;;;;;4944760;29;20122;-72
2022/12/15 09:10:30;;;;;;;13.68;6.18;;;-3.70;99.90;;;;;;4952354;28;20028;-72
2022/12/15 09:12:56;;;;;;;12.32;5.90;;;-3.50;99.90;;;;;;4946187;29;20491;-72
2022/12/15 09:15:22;;;;;;;10.77;6.40;;;-3.40;99.90;;;;;;4916464;29;20779;-73
2022/12/15 09:17:48;;;;;;;9.73;7.00;;;-3.30;99.90;;;;;;4943609;29;20122;-72
2022/12/15 09:20:14;;;;;;;11.02;6.60;;;-3.30;99.90;;;;;;4952663;29;20039;-73
2022/12/15 09:22:40;;;;;;;15.73;4.38;;;-3.20;99.90;;;;;;4944060;29;20035;-72
2022/12/15 09:25:07;;;;;;;17.00;6.40;;;-3.20;99.90;;;;;;4952498;29;20031;-72
2022/12/15 09:27:33;;;;;;;12.63;4.47;;;-3.00;99.90;;;;;;4953740;29;20027;-72
2022/12/15 09:30:00;;;;;;;9.82;4.65;;;-2.90;99.90;;;;;;4935548;29;20031;-72
2022/12/15 09:32:26;;;;;;;21.70;8.00;;;-2.70;99.90;;;;;;4952880;29;20077;-72
2022/12/15 09:34:53;;;;;;;17.40;5.57;;;-2.50;99.90;;;;;;4930773;29;20488;-72
2022/12/15 09:37:19;;;;;;;8.80;5.38;;;-2.30;99.90;;;;;;4951765;29;20019;-72
2022/12/15 09:39:45;;;;;;;18.30;6.82;;;-2.20;99.90;;;;;;4950978;29;20031;-72
2022/12/15 09:42:29;;;;;;;19.52;6.80;;;-2.10;99.90;;;;;;4951642;29;20038;-72
2022/12/15 09:45:13;;;;;;;36.80;6.72;;;-2.00;99.90;;;;;;4934996;29;20045;-72
2022/12/15 09:47:59;;;;;;;20.73;6.25;;;-1.80;99.90;;;;;;4943248;28;20035;-72
2022/12/15 09:50:43;;;;;;;11.15;5.53;;;-1.30;99.90;;;;;;4952464;28;20031;-73
2022/12/15 09:53:13;;;;;;;13.30;6.45;;;-0.10;99.90;;;;;;4947228;29;20023;-72
2022/12/15 09:55:41;;;;;;;15.20;8.55;;;1.10;99.90;;;;;;4935342;29;20043;-72
2022/12/15 09:58:48;;;;;;;14.07;7.75;;;2.20;99.90;;;;;;4928034;29;20082;-70
2022/12/15 10:01:37;;;;;;;12.63;7.55;;;3.30;99.90;;;;;;4941919;29;20032;-72
2022/12/15 10:04:32;;;;;;;15.57;7.25;;;4.00;99.90;;;;;;4938747;29;20110;-72
2022/12/15 10:07:33;;;;;;;22.58;7.53;;;4.60;99.90;;;;;;4943274;29;20513;-72
2022/12/15 10:10:16;;;;;;;15.38;6.68;;;4.70;99.90;;;;;;4918055;29;20079;-72
2022/12/15 10:12:43;;;;;;;13.18;7.38;;;4.70;99.90;;;;;;4943671;29;20035;-72
2022/12/15 10:15:25;;;;;;;17.38;5.80;;;4.70;99.90;;;;;;4950599;29;20031;-72
2022/12/15 10:18:06;;;;;;;13.18;7.70;;;4.80;99.90;;;;;;4943906;29;20097;-72
2022/12/15 10:20:32;;;;;;;12.57;6.38;;;4.80;99.90;;;;;;4949081;29;20074;-72
2022/12/15 10:23:13;;;;;;;30.95;7.75;;;4.50;99.90;;;;;;4942263;29;20090;-72
2022/12/15 10:25:42;;;;;;;13.68;7.03;;;4.60;99.90;;;;;;4935087;29;20035;-72
2022/12/15 10:28:29;;;;;;;17.77;7.47;;;4.40;99.90;;;;;;4927806;29;20035;-72
2022/12/15 10:31:24;;;;;;;16.42;7.43;;;4.60;99.90;;;;;;4939313;29;20039;-72
2022/12/15 10:34:00;;;;;;;12.55;6.47;;;4.30;99.90;;;;;;4946479;28;21387;-72
2022/12/15 10:36:26;;;;;;;11.98;6.05;;;4.20;99.90;;;;;;4944281;29;20491;-70
2022/12/15 10:38:51;;;;;;;16.05;6.32;;;4.40;99.90;;;;;;4944070;29;20766;-70
2022/12/15 10:41:26;;;;;;;13.98;7.10;;;4.40;99.90;;;;;;4950709;29;20039;-70
2022/12/15 10:43:53;;;;;;;20.23;8.68;;;4.10;99.90;;;;;;4944096;29;20106;-69
2022/12/15 10:46:20;;;;;;;14.35;6.90;;;3.50;99.90;;;;;;4951072;29;20050;-69
2022/12/15 10:48:58;;;;;;;15.40;8.63;;;3.70;99.90;;;;;;4952023;28;20130;-68
2022/12/15 10:51:35;;;;;;;11.93;7.93;;;3.70;99.90;;;;;;4950954;28;20035;-68
2022/12/15 10:54:08;;;;;;;18.92;7.28;;;3.60;99.90;;;;;;4937435;29;20084;-68
2022/12/15 10:56:54;;;;;;;11.48;6.95;;;3.80;99.90;;;;;;4950941;29;20487;-68
2022/12/15 10:59:40;;;;;;;13.73;6.13;;;3.90;99.90;;;;;;4951862;29;20139;-68
2022/12/15 11:02:23;;;;;;;17.50;7.57;;;3.80;99.90;;;;;;4950598;28;20563;-68
2022/12/15 11:05:02;;;;;;;11.57;7.05;;;3.60;99.90;;;;;;4963156;28;20105;-68
2022/12/15 11:07:39;;;;;;;15.20;5.82;;;3.90;99.90;;;;;;4948669;29;20027;-70
2022/12/15 11:10:23;;;;;;;18.77;9.43;;;3.80;99.90;;;;;;4950983;28;20041;-69
2022/12/15 11:13:22;;;;;;;17.05;7.75;;;3.40;99.90;;;;;;4938037;29;20072;-68
2022/12/15 11:15:53;;;;;;;18.95;9.23;;;3.10;99.90;;;;;;4954630;29;20042;-67
2022/12/15 11:18:28;;;;;;;22.52;10.02;;;2.90;99.90;;;;;;4946636;29;20031;-67
2022/12/15 11:21:06;;;;;;;24.40;7.65;;;3.30;99.90;;;;;;4948643;29;20043;-69
2022/12/15 11:24:11;;;;;;;18.33;8.77;;;3.50;99.90;;;;;;4946442;29;20019;-67
2022/12/15 11:26:45;;;;;;;22.20;8.40;;;3.90;99.90;;;;;;4954946;29;20130;-69
2022/12/15 11:29:55;;;;;;;17.17;9.07;;;4.40;99.90;;;;;;4948814;29;20051;-67
2022/12/15 11:32:28;;;;;;;19.15;7.93;;;4.60;99.90;;;;;;4943232;29;20047;-69
2022/12/15 11:34:54;;;;;;;15.52;6.00;;;4.30;99.90;;;;;;4959067;28;20035;-71
2022/12/15 11:37:42;;;;;;;18.83;8.48;;;4.10;99.90;;;;;;4955303;29;20150;-67
2022/12/15 11:40:35;;;;;;;14.65;6.55;;;4.40;99.90;;;;;;4953903;29;20058;-67
2022/12/15 11:43:22;;;;;;;13.85;7.05;;;4.30;99.90;;;;;;4945851;29;20530;-67
2022/12/15 11:46:19;;;;;;;19.45;7.97;;;4.00;99.90;;;;;;4954335;29;20042;-69
2022/12/15 11:48:57;;;;;;;16.80;8.32;;;3.70;99.90;;;;;;4946407;29;20102;-69
2022/12/15 11:51:43;;;;;;;17.02;6.93;;;3.50;99.90;;;;;;4954114;29;20035;-69
2022/12/15 11:54:54;;;;;;;17.45;9.07;;;3.60;99.90;;;;;;4955114;29;20039;-70
2022/12/15 11:57:55;;;;;;;11.80;5.90;;;3.40;99.90;;;;;;4955047;29;20090;-70
2022/12/15 12:00:22;;;;;;;21.23;7.55;;;3.20;99.90;;;;;;4967788;28;20095;-70
2022/12/15 12:02:54;;;;;;;15.65;7.10;;;3.10;99.90;;;;;;4945186;29;20094;-70
2022/12/15 12:05:47;;;;;;;17.38;8.75;;;3.20;99.90;;;;;;4965996;28;20038;-69
2022/12/15 12:09:02;;;;;;;13.35;6.72;;;2.40;99.90;;;;;;4949839;29;20110;-69
2022/12/15 12:11:54;;;;;;;17.83;6.45;;;1.60;99.90;;;;;;4945521;29;20475;-69
2022/12/15 12:14:59;;;;;;;14.30;7.97;;;1.00;99.90;;;;;;4942816;29;20047;-70
2022/12/15 12:18:10;;;;;;;16.88;6.05;;;0.60;99.90;;;;;;4943225;29;20458;-69
2022/12/15 12:20:47;;;;;;;12.57;5.53;;;0.60;99.90;;;;;;4936734;28;20118;-70
2022/12/15 12:23:27;;;;;;;17.83;7.60;;;0.20;99.90;;;;;;4944534;29;20350;-69
2022/12/15 12:26:47;;;;;;;11.38;5.22;;;0.00;99.90;;;;;;4928695;29;20086;-69
2022/12/15 12:29:38;;;;;;;17.30;7.70;;;-0.10;99.90;;;;;;4954577;29;20035;-69
2022/12/15 12:32:29;;;;;;;15.55;7.60;;;-0.20;99.90;;;;;;4953903;29;20034;-70
2022/12/15 12:35:20;;;;;;;16.73;7.07;;;-0.20;99.90;;;;;;4937466;29;20040;-70
2022/12/15 12:38:03;;;;;;;23.85;9.07;;;-0.30;99.90;;;;;;4944317;29;20671;-70
2022/12/15 12:41:14;;;;;;;14.85;7.47;;;-0.30;99.90;;;;;;4952826;28;20442;-71
2022/12/15 12:44:11;;;;;;;13.80;6.88;;;-0.10;99.90;;;;;;4954392;28;20139;-70
2022/12/15 12:46:47;;;;;;;21.63;8.68;;;-0.10;99.90;;;;;;4946909;29;20035;-70
2022/12/15 12:49:27;;;;;;;14.60;9.07;;;0.00;99.90;;;;;;4947945;29;20098;-70
2022/12/15 12:51:57;;;;;;;15.48;7.80;;;-0.10;99.90;;;;;;4952939;29;20094;-70
2022/12/15 12:54:35;;;;;;;13.63;5.90;;;-0.40;99.90;;;;;;4949120;29;20090;-70
2022/12/15 12:57:13;;;;;;;16.02;7.05;;;-0.60;99.90;;;;;;4953000;29;20039;-70
2022/12/15 12:59:47;;;;;;;12.40;7.32;;;-0.80;99.90;;;;;;4953730;29;20102;-70
2022/12/15 13:02:24;;;;;;;13.43;7.55;;;-0.90;99.90;;;;;;4943936;29;20031;-70
2022/12/15 13:05:20;;;;;;;19.30;7.50;;;-1.10;99.90;;;;;;4953123;29;20617;-70
2022/12/15 13:08:05;;;;;;;21.38;8.13;;;-1.20;99.90;;;;;;4953002;29;20043;-69
2022/12/15 13:13:17;;;;;;;12.80;4.63;;;-1.10;99.90;;;;;;4931872;29;20055;-68
2022/12/15 13:15:48;;;;;;;21.63;8.63;;;-1.10;99.90;;;;;;4934401;29;20042;-68
2022/12/15 13:18:21;;;;;;;10.98;7.07;;;-1.10;99.90;;;;;;4932582;29;20063;-69
2022/12/15 13:20:55;;;;;;;12.20;6.90;;;-1.00;99.90;;;;;;4934066;29;20032;-70
2022/12/15 13:23:20;;;;;;;13.57;7.43;;;-1.00;99.90;;;;;;4929164;29;20086;-69
2022/12/15 13:26:10;;;;;;;11.07;6.63;;;-0.80;99.90;;;;;;4934213;29;20079;-70
2022/12/15 13:28:39;;;;;;;12.98;5.20;;;-0.70;99.90;;;;;;4930995;29;20709;-70
2022/12/15 13:31:17;;;;;;;12.35;6.15;;;-0.60;99.90;;;;;;4933742;29;20070;-69
2022/12/15 13:33:49;;;;;;;11.98;6.25;;;-0.50;99.90;;;;;;4933177;29;20036;-70
2022/12/15 13:36:36;;;;;;;14.60;7.05;;;-0.30;99.90;;;;;;4933661;29;20043;-69
2022/12/15 13:39:11;;;;;;;19.33;8.05;;;-0.20;99.90;;;;;;4926373;29;20051;-69
2022/12/15 13:42:02;;;;;;;15.65;8.23;;;-0.10;99.90;;;;;;4932983;29;20054;-69
2022/12/15 13:44:44;;;;;;;13.30;7.40;;;0.10;99.90;;;;;;4920884;29;20496;-69
2022/12/15 13:47:21;;;;;;;10.73;6.85;;;0.20;99.90;;;;;;4932006;29;20352;-69
2022/12/15 13:50:14;;;;;;;17.65;8.95;;;0.50;99.90;;;;;;4934003;29;20159;-70
2022/12/15 13:52:53;;;;;;;16.27;8.50;;;0.70;99.90;;;;;;4932000;29;20075;-69
2022/12/15 13:55:22;;;;;;;15.30;7.00;;;0.80;99.90;;;;;;4932671;29;20053;-69
2022/12/15 13:58:22;;;;;;;17.05;8.02;;;0.90;99.90;;;;;;4931955;29;20032;-69
2022/12/15 14:00:53;;;;;;;7.80;5.50;;;1.00;99.90;;;;;;4917605;29;20048;-69
2022/12/15 14:03:19;;;;;;;36.63;7.85;;;1.00;99.90;;;;;;4932117;29;20034;-69
2022/12/15 14:05:58;;;;;;;17.58;9.02;;;0.70;99.90;;;;;;4933165;29;20038;-69
2022/12/15 14:08:28;;;;;;;19.48;7.82;;;1.00;99.90;;;;;;4944804;29;20079;-69
2022/12/15 14:10:59;;;;;;;18.63;9.30;;;1.00;99.90;;;;;;4913137;29;20043;-69
2022/12/15 14:13:32;;;;;;;19.98;7.32;;;1.10;99.90;;;;;;4929873;29;20444;-69
2022/12/15 14:16:16;;;;;;;12.80;7.18;;;1.20;99.90;;;;;;4931649;29;20106;-69
2022/12/15 14:18:42;;;;;;;14.63;9.18;;;1.20;99.90;;;;;;4932616;29;20063;-69
2022/12/15 14:21:22;;;;;;;21.40;9.70;;;1.30;99.90;;;;;;4931337;29;20043;-69
2022/12/15 14:23:48;;;;;;;14.00;7.80;;;1.30;99.90;;;;;;4932196;29;20484;-69
2022/12/15 14:26:15;;;;;;;11.57;7.22;;;1.20;99.90;;;;;;4933077;29;20041;-69
2022/12/15 14:28:45;;;;;;;14.52;7.28;;;1.00;99.90;;;;;;4929957;29;20059;-69
2022/12/15 14:31:21;;;;;;;19.20;8.97;;;1.00;99.90;;;;;;4930998;29;20659;-69
2022/12/15 14:33:52;;;;;;;13.57;7.53;;;0.90;99.90;;;;;;4915829;29;20043;-69
2022/12/15 14:36:20;;;;;;;12.55;6.85;;;0.90;99.90;;;;;;4931411;29;20543;-69
2022/12/15 14:39:12;;;;;;;15.23;8.73;;;0.90;99.90;;;;;;4931645;29;20036;-69
2022/12/15 14:41:45;;;;;;;12.75;7.13;;;0.90;99.90;;;;;;4930965;29;20070;-68
2022/12/15 14:44:38;;;;;;;20.63;9.70;;;0.80;99.90;;;;;;4932489;29;20032;-69
2022/12/15 14:47:15;;;;;;;14.23;5.93;;;0.70;99.90;;;;;;4944419;29;20399;-69
2022/12/15 14:49:44;;;;;;;17.83;7.72;;;0.70;99.90;;;;;;4932897;29;20435;-69
2022/12/15 14:52:37;;;;;;;16.30;8.63;;;0.50;99.90;;;;;;4931902;29;20111;-69
2022/12/15 14:55:31;;;;;;;11.07;7.47;;;0.20;99.90;;;;;;4932532;29;20575;-69
2022/12/15 14:57:57;;;;;;;8.75;5.35;;;-0.20;99.90;;;;;;4946664;29;20481;-69
2022/12/15 15:00:34;;;;;;;14.93;6.43;;;-0.30;99.90;;;;;;4932920;29;20391;-70
2022/12/15 15:03:18;;;;;;;18.67;7.78;;;-0.50;99.90;;;;;;4931650;29;20066;-68
2022/12/15 15:06:17;;;;;;;16.95;8.65;;;-0.70;99.90;;;;;;4931962;29;20404;-69
2022/12/15 15:08:51;;;;;;;9.90;6.30;;;-0.90;99.90;;;;;;4916843;29;20054;-68
2022/12/15 15:11:35;;;;;;;18.35;8.13;;;-1.00;99.90;;;;;;4930430;29;20447;-69
2022/12/15 15:14:15;;;;;;;14.27;4.28;;;-1.00;99.90;;;;;;4924699;29;20027;-69
2022/12/15 15:16:42;;;;;;;21.17;7.03;;;-1.20;99.90;;;;;;4930302;29;20422;-68
2022/12/15 15:19:21;;;;;;;12.65;9.02;;;-1.20;99.90;;;;;;4931348;29;20043;-69
2022/12/15 15:21:47;;;;;;;14.55;7.03;;;-1.30;99.90;;;;;;4930385;29;20062;-69
2022/12/15 15:24:12;;;;;;;8.88;6.20;;;-1.40;99.90;;;;;;4929489;29;20036;-69
2022/12/15 15:26:42;;;;;;;13.05;7.28;;;-1.50;99.90;;;;;;4932452;29;20427;-69
2022/12/15 15:29:39;;;;;;;9.27;5.75;;;-1.50;99.90;;;;;;4931131;29;20044;-68
2022/12/15 15:32:20;;;;;;;8.95;5.95;;;-1.60;99.90;;;;;;4928781;29;20043;-69
2022/12/15 15:34:46;;;;;;;9.75;5.18;;;-1.70;99.90;;;;;;4931270;29;20544;-69
2022/12/15 15:37:16;;;;;;;16.17;7.10;;;-1.80;99.90;;;;;;4928227;29;20789;-67
2022/12/15 15:39:42;;;;;;;8.73;6.80;;;-1.90;99.90;;;;;;4931606;29;20089;-67
2022/12/15 15:42:14;;;;;;;7.10;4.80;;;-1.90;99.90;;;;;;4929709;29;20487;-67